sensor_id;sensor_type;location;lat;lon;timestamp;pressure;altitude;pressure_sealevel;temperature;humidity
59289;BME280;45056;47.602;9.886;2023-03-16T00:00:07;93113.91;;;3.03;56.24
59289;BME280;45056;47.602;9.886;2023-03-16T00:02:39;93120.03;;;3.03;56.37
59289;BME280;45056;47.602;9.886;2023-03-16T00:05:08;93115.41;;;3.08;56.29
59289;BME280;45056;47.602;9.886;2023-03-16T00:07:40;93108.50;;;3.07;56.49
59289;BME280;45056;47.602;9.886;2023-03-16T00:10:10;93110.81;;;3.05;56.49
59289;BME280;45056;47.602;9.886;2023-03-16T00:12:39;93103.16;;;3.03;56.34
59289;BME280;45056;47.602;9.886;2023-03-16T00:15:09;93101.22;;;3.03;56.43
59289;BME280;45056;47.602;9.886;2023-03-16T00:17:37;93106.59;;;3.03;56.54
59289;BME280;45056;47.602;9.886;2023-03-16T00:20:08;93108.91;;;3.01;56.57
59289;BME280;45056;47.602;9.886;2023-03-16T00:22:39;93096.63;;;3.00;56.61
59289;BME280;45056;47.602;9.886;2023-03-16T00:25:08;93094.72;;;3.01;56.14
59289;BME280;45056;47.602;9.886;2023-03-16T00:27:37;93096.63;;;3.00;56.37
59289;BME280;45056;47.602;9.886;2023-03-16T00:30:06;93091.25;;;3.00;56.12
59289;BME280;45056;47.602;9.886;2023-03-16T00:32:36;93093.56;;;2.98;56.27
59289;BME280;45056;47.602;9.886;2023-03-16T00:35:05;93090.50;;;2.96;55.99
59289;BME280;45056;47.602;9.886;2023-03-16T00:37:33;93087.44;;;2.94;56.49
59289;BME280;45056;47.602;9.886;2023-03-16T00:40:05;93082.84;;;2.91;56.23
59289;BME280;45056;47.602;9.886;2023-03-16T00:42:34;93083.63;;;2.88;56.47
59289;BME280;45056;47.602;9.886;2023-03-16T00:45:03;93073.25;;;2.86;56.64
59289;BME280;45056;47.602;9.886;2023-03-16T00:47:33;93075.56;;;2.84;56.48
59289;BME280;45056;47.602;9.886;2023-03-16T00:50:01;93068.66;;;2.83;56.44
59289;BME280;45056;47.602;9.886;2023-03-16T00:52:30;93075.56;;;2.84;56.38
59289;BME280;45056;47.602;9.886;2023-03-16T00:54:58;93076.72;;;2.87;56.44
59289;BME280;45056;47.602;9.886;2023-03-16T00:57:27;93074.03;;;2.87;56.37
59289;BME280;45056;47.602;9.886;2023-03-16T00:59:55;93064.81;;;2.88;56.55
59289;BME280;45056;47.602;9.886;2023-03-16T01:02:25;93070.19;;;2.88;56.84
59289;BME280;45056;47.602;9.886;2023-03-16T01:04:53;93071.34;;;2.87;56.74
59289;BME280;45056;47.602;9.886;2023-03-16T01:07:21;93068.28;;;2.81;56.69
59289;BME280;45056;47.602;9.886;2023-03-16T01:09:49;93073.28;;;2.76;56.58
59289;BME280;45056;47.602;9.886;2023-03-16T01:12:18;93074.47;;;2.71;57.07
59289;BME280;45056;47.602;9.886;2023-03-16T01:14:48;93066.78;;;2.69;56.89
59289;BME280;45056;47.602;9.886;2023-03-16T01:17:16;93065.63;;;2.70;57.05
59289;BME280;45056;47.602;9.886;2023-03-16T01:19:45;93076.00;;;2.72;57.37
59289;BME280;45056;47.602;9.886;2023-03-16T01:22:14;93067.16;;;2.71;57.44
59289;BME280;45056;47.602;9.886;2023-03-16T01:24:43;93073.31;;;2.72;57.19
59289;BME280;45056;47.602;9.886;2023-03-16T01:27:13;93063.31;;;2.72;57.18
59289;BME280;45056;47.602;9.886;2023-03-16T01:29:41;93067.16;;;2.71;57.33
59289;BME280;45056;47.602;9.886;2023-03-16T01:32:12;93071.38;;;2.72;57.10
59289;BME280;45056;47.602;9.886;2023-03-16T01:34:40;93066.00;;;2.72;57.11
59289;BME280;45056;47.602;9.886;2023-03-16T01:37:08;93054.88;;;2.70;57.40
59289;BME280;45056;47.602;9.886;2023-03-16T01:39:36;93051.81;;;2.68;57.51
59289;BME280;45056;47.602;9.886;2023-03-16T01:42:05;93054.50;;;2.65;57.36
59289;BME280;45056;47.602;9.886;2023-03-16T01:44:49;93051.06;;;2.57;57.69
59289;BME280;45056;47.602;9.886;2023-03-16T01:47:22;93061.06;;;2.53;57.57
59289;BME280;45056;47.602;9.886;2023-03-16T01:49:54;93048.78;;;2.48;57.94
59289;BME280;45056;47.602;9.886;2023-03-16T01:52:27;93041.88;;;2.47;57.83
59289;BME280;45056;47.602;9.886;2023-03-16T01:55:03;93041.88;;;2.43;57.93
59289;BME280;45056;47.602;9.886;2023-03-16T01:57:39;93044.97;;;2.42;57.63
59289;BME280;45056;47.602;9.886;2023-03-16T02:00:13;93042.66;;;2.40;57.62
59289;BME280;45056;47.602;9.886;2023-03-16T02:02:52;93058.38;;;2.42;57.64
59289;BME280;45056;47.602;9.886;2023-03-16T02:05:29;93044.19;;;2.41;57.85
59289;BME280;45056;47.602;9.886;2023-03-16T02:08:01;93050.72;;;2.40;57.78
59289;BME280;45056;47.602;9.886;2023-03-16T02:10:32;93050.72;;;2.40;57.70
59289;BME280;45056;47.602;9.886;2023-03-16T02:13:02;93043.81;;;2.39;57.75
59289;BME280;45056;47.602;9.886;2023-03-16T02:15:30;93035.38;;;2.41;57.44
59289;BME280;45056;47.602;9.886;2023-03-16T02:18:03;93039.19;;;2.43;57.80
59289;BME280;45056;47.602;9.886;2023-03-16T02:20:41;93047.25;;;2.43;57.82
59289;BME280;45056;47.602;9.886;2023-03-16T02:23:18;93054.94;;;2.41;57.91
59289;BME280;45056;47.602;9.886;2023-03-16T02:25:58;93051.09;;;2.39;57.73
59289;BME280;45056;47.602;9.886;2023-03-16T02:28:40;93048.03;;;2.37;58.04
59289;BME280;45056;47.602;9.886;2023-03-16T02:31:18;93048.41;;;2.35;57.82
59289;BME280;45056;47.602;9.886;2023-03-16T02:33:49;93038.06;;;2.34;58.08
59289;BME280;45056;47.602;9.886;2023-03-16T02:36:20;93046.50;;;2.32;58.13
59289;BME280;45056;47.602;9.886;2023-03-16T02:38:49;93046.88;;;2.30;58.02
59289;BME280;45056;47.602;9.886;2023-03-16T02:41:19;93041.91;;;2.29;58.13
59289;BME280;45056;47.602;9.886;2023-03-16T02:43:54;93044.97;;;2.27;58.35
59289;BME280;45056;47.602;9.886;2023-03-16T02:46:28;93047.66;;;2.27;58.19
59289;BME280;45056;47.602;9.886;2023-03-16T02:49:07;93052.28;;;2.27;58.16
59289;BME280;45056;47.602;9.886;2023-03-16T02:51:43;93041.53;;;2.27;58.00
59289;BME280;45056;47.602;9.886;2023-03-16T02:54:13;93040.78;;;2.23;58.22
59289;BME280;45056;47.602;9.886;2023-03-16T02:56:41;93038.09;;;2.19;58.10
59289;BME280;45056;47.602;9.886;2023-03-16T02:59:09;93044.59;;;2.14;58.00
59289;BME280;45056;47.602;9.886;2023-03-16T03:01:39;93042.31;;;2.13;57.96
59289;BME280;45056;47.602;9.886;2023-03-16T03:04:07;93046.16;;;2.12;58.19
59289;BME280;45056;47.602;9.886;2023-03-16T03:06:35;93037.31;;;2.11;57.92
59289;BME280;45056;47.602;9.886;2023-03-16T03:09:04;93040.00;;;2.11;57.89
59289;BME280;45056;47.602;9.886;2023-03-16T03:11:33;93041.16;;;2.10;58.23
59289;BME280;45056;47.602;9.886;2023-03-16T03:14:01;93035.03;;;2.10;58.25
59289;BME280;45056;47.602;9.886;2023-03-16T03:16:29;93041.16;;;2.07;58.63
59289;BME280;45056;47.602;9.886;2023-03-16T03:18:59;93037.69;;;2.06;58.78
59289;BME280;45056;47.602;9.886;2023-03-16T03:21:28;93043.06;;;2.06;58.58
59289;BME280;45056;47.602;9.886;2023-03-16T03:23:56;93033.09;;;2.03;58.73
59289;BME280;45056;47.602;9.886;2023-03-16T03:26:24;93034.63;;;2.04;58.76
59289;BME280;45056;47.602;9.886;2023-03-16T03:28:52;93034.63;;;2.04;58.55
59289;BME280;45056;47.602;9.886;2023-03-16T03:31:21;93027.75;;;2.03;58.50
59289;BME280;45056;47.602;9.886;2023-03-16T03:33:49;93029.28;;;2.04;58.68
59289;BME280;45056;47.602;9.886;2023-03-16T03:36:20;93036.16;;;2.05;58.57
59289;BME280;45056;47.602;9.886;2023-03-16T03:38:48;93030.41;;;2.03;58.51
59289;BME280;45056;47.602;9.886;2023-03-16T03:41:16;93032.34;;;1.99;58.18
59289;BME280;45056;47.602;9.886;2023-03-16T03:43:44;93024.66;;;1.97;58.42
59289;BME280;45056;47.602;9.886;2023-03-16T03:46:12;93020.06;;;1.94;58.32
59289;BME280;45056;47.602;9.886;2023-03-16T03:48:40;93014.31;;;1.92;58.55
59289;BME280;45056;47.602;9.886;2023-03-16T03:51:08;93011.25;;;1.94;58.49
59289;BME280;45056;47.602;9.886;2023-03-16T03:53:37;93013.94;;;1.94;58.96
59289;BME280;45056;47.602;9.886;2023-03-16T03:56:06;93016.63;;;1.94;58.89
59289;BME280;45056;47.602;9.886;2023-03-16T03:58:34;93020.84;;;1.95;58.68
59289;BME280;45056;47.602;9.886;2023-03-16T04:01:03;93010.88;;;1.95;58.62
59289;BME280;45056;47.602;9.886;2023-03-16T04:03:34;93013.94;;;1.97;58.75
59289;BME280;45056;47.602;9.886;2023-03-16T04:06:02;93018.53;;;1.97;58.81
59289;BME280;45056;47.602;9.886;2023-03-16T04:08:32;93014.34;;;1.96;58.88
59289;BME280;45056;47.602;9.886;2023-03-16T04:11:02;93010.47;;;1.93;58.90
59289;BME280;45056;47.602;9.886;2023-03-16T04:13:29;93014.34;;;1.89;59.18
59289;BME280;45056;47.602;9.886;2023-03-16T04:15:59;93008.59;;;1.83;58.98
59289;BME280;45056;47.602;9.886;2023-03-16T04:18:29;93010.13;;;1.77;59.17
59289;BME280;45056;47.602;9.886;2023-03-16T04:21:04;93010.88;;;1.73;59.41
59289;BME280;45056;47.602;9.886;2023-03-16T04:23:33;93005.88;;;1.72;59.36
59289;BME280;45056;47.602;9.886;2023-03-16T04:26:03;93006.66;;;1.72;59.19
59289;BME280;45056;47.602;9.886;2023-03-16T04:28:31;93000.53;;;1.72;59.50
59289;BME280;45056;47.602;9.886;2023-03-16T04:31:00;92999.38;;;1.69;59.52
59289;BME280;45056;47.602;9.886;2023-03-16T04:33:30;93002.44;;;1.68;59.87
59289;BME280;45056;47.602;9.886;2023-03-16T04:35:58;92998.63;;;1.69;59.87
59289;BME280;45056;47.602;9.886;2023-03-16T04:38:28;92990.56;;;1.69;59.99
59289;BME280;45056;47.602;9.886;2023-03-16T04:40:59;92982.50;;;1.65;60.09
59289;BME280;45056;47.602;9.886;2023-03-16T04:43:29;92987.50;;;1.60;60.17
59289;BME280;45056;47.602;9.886;2023-03-16T04:46:00;92980.97;;;1.53;60.71
59289;BME280;45056;47.602;9.886;2023-03-16T04:48:29;92982.50;;;1.51;60.66
59289;BME280;45056;47.602;9.886;2023-03-16T04:50:58;92978.69;;;1.52;60.74
59289;BME280;45056;47.602;9.886;2023-03-16T04:53:29;92979.44;;;1.52;60.76
59289;BME280;45056;47.602;9.886;2023-03-16T04:55:58;92973.31;;;1.52;60.86
59289;BME280;45056;47.602;9.886;2023-03-16T04:58:28;92977.13;;;1.54;60.64
59289;BME280;45056;47.602;9.886;2023-03-16T05:00:56;92973.31;;;1.55;60.55
59289;BME280;45056;47.602;9.886;2023-03-16T05:03:24;92969.88;;;1.58;60.55
59289;BME280;45056;47.602;9.886;2023-03-16T05:05:52;92959.53;;;1.61;60.80
59289;BME280;45056;47.602;9.886;2023-03-16T05:08:20;92962.22;;;1.61;60.60
59289;BME280;45056;47.602;9.886;2023-03-16T05:10:49;92963.34;;;1.63;60.63
59289;BME280;45056;47.602;9.886;2023-03-16T05:13:17;92961.06;;;1.65;60.47
59289;BME280;45056;47.602;9.886;2023-03-16T05:15:46;92972.94;;;1.68;60.41
59289;BME280;45056;47.602;9.886;2023-03-16T05:18:15;92967.19;;;1.69;60.47
59289;BME280;45056;47.602;9.886;2023-03-16T05:20:43;92962.59;;;1.70;60.19
59289;BME280;45056;47.602;9.886;2023-03-16T05:23:11;92966.03;;;1.70;59.72
59289;BME280;45056;47.602;9.886;2023-03-16T05:25:39;92971.03;;;1.72;59.88
59289;BME280;45056;47.602;9.886;2023-03-16T05:28:07;92962.59;;;1.70;59.71
59289;BME280;45056;47.602;9.886;2023-03-16T05:30:35;92962.19;;;1.64;59.97
59289;BME280;45056;47.602;9.886;2023-03-16T05:33:04;92961.06;;;1.58;59.92
59289;BME280;45056;47.602;9.886;2023-03-16T05:35:32;92956.06;;;1.53;60.34
59289;BME280;45056;47.602;9.886;2023-03-16T05:38:01;92958.75;;;1.49;60.33
59289;BME280;45056;47.602;9.886;2023-03-16T05:40:29;92963.34;;;1.49;60.35
59289;BME280;45056;47.602;9.886;2023-03-16T05:42:58;92961.06;;;1.47;60.26
59289;BME280;45056;47.602;9.886;2023-03-16T05:45:27;92962.19;;;1.46;60.20
59289;BME280;45056;47.602;9.886;2023-03-16T05:47:55;92959.16;;;1.48;60.17
59289;BME280;45056;47.602;9.886;2023-03-16T05:50:24;92969.09;;;1.54;60.07
59289;BME280;45056;47.602;9.886;2023-03-16T05:52:53;92956.47;;;1.58;60.18
59289;BME280;45056;47.602;9.886;2023-03-16T05:55:22;92958.78;;;1.64;59.82
59289;BME280;45056;47.602;9.886;2023-03-16T05:57:50;92962.59;;;1.66;59.74
59289;BME280;45056;47.602;9.886;2023-03-16T06:00:19;92953.00;;;1.69;59.52
59289;BME280;45056;47.602;9.886;2023-03-16T06:02:49;92952.63;;;1.67;59.66
59289;BME280;45056;47.602;9.886;2023-03-16T06:05:20;92957.22;;;1.63;59.76
59289;BME280;45056;47.602;9.886;2023-03-16T06:07:51;92955.31;;;1.60;59.39
59289;BME280;45056;47.602;9.886;2023-03-16T06:10:20;92964.53;;;1.58;59.48
59289;BME280;45056;47.602;9.886;2023-03-16T06:12:48;92966.81;;;1.56;59.46
59289;BME280;45056;47.602;9.886;2023-03-16T06:15:17;92968.72;;;1.56;59.69
59289;BME280;45056;47.602;9.886;2023-03-16T06:17:45;92972.94;;;1.61;59.79
59289;BME280;45056;47.602;9.886;2023-03-16T06:20:14;92974.47;;;1.65;59.45
59289;BME280;45056;47.602;9.886;2023-03-16T06:22:43;92972.91;;;1.71;59.47
59289;BME280;45056;47.602;9.886;2023-03-16T06:25:13;92968.72;;;1.81;59.12
59289;BME280;45056;47.602;9.886;2023-03-16T06:27:42;92974.09;;;1.89;59.18
59289;BME280;45056;47.602;9.886;2023-03-16T06:30:12;92959.50;;;1.93;58.85
59289;BME280;45056;47.602;9.886;2023-03-16T06:32:41;92962.56;;;1.95;58.29
59289;BME280;45056;47.602;9.886;2023-03-16T06:35:11;92966.78;;;1.96;58.14
59289;BME280;45056;47.602;9.886;2023-03-16T06:37:40;92968.69;;;1.99;58.36
59289;BME280;45056;47.602;9.886;2023-03-16T06:40:09;92970.22;;;2.04;58.15
59289;BME280;45056;47.602;9.886;2023-03-16T06:42:40;92964.84;;;2.08;58.10
59289;BME280;45056;47.602;9.886;2023-03-16T06:45:09;92971.75;;;2.12;58.08
59289;BME280;45056;47.602;9.886;2023-03-16T06:47:38;92973.28;;;2.21;57.61
59289;BME280;45056;47.602;9.886;2023-03-16T06:50:07;92977.09;;;2.27;57.07
59289;BME280;45056;47.602;9.886;2023-03-16T06:52:37;92976.69;;;2.32;56.73
59289;BME280;45056;47.602;9.886;2023-03-16T06:55:06;92978.59;;;2.39;56.43
59289;BME280;45056;47.602;9.886;2023-03-16T06:57:35;92973.97;;;2.47;56.53
59289;BME280;45056;47.602;9.886;2023-03-16T07:00:06;92974.72;;;2.54;56.26
59289;BME280;45056;47.602;9.886;2023-03-16T07:02:35;92979.66;;;2.63;55.34
59289;BME280;45056;47.602;9.886;2023-03-16T07:05:06;92976.94;;;2.70;55.45
59289;BME280;45056;47.602;9.886;2023-03-16T07:07:36;92978.81;;;2.81;55.07
59289;BME280;45056;47.602;9.886;2023-03-16T07:10:05;92976.13;;;2.88;54.85
59289;BME280;45056;47.602;9.886;2023-03-16T07:12:33;92965.34;;;2.95;54.36
59289;BME280;45056;47.602;9.886;2023-03-16T07:15:02;92961.44;;;3.03;53.96
59289;BME280;45056;47.602;9.886;2023-03-16T07:17:32;92962.19;;;3.11;53.96
59289;BME280;45056;47.602;9.886;2023-03-16T07:20:00;92959.06;;;3.20;53.69
59289;BME280;45056;47.602;9.886;2023-03-16T07:22:31;92974.38;;;3.27;53.29
59289;BME280;45056;47.602;9.886;2023-03-16T07:24:59;92963.97;;;3.32;53.11
59289;BME280;45056;47.602;9.886;2023-03-16T07:27:27;92963.19;;;3.36;53.16
59289;BME280;45056;47.602;9.886;2023-03-16T07:29:56;92975.44;;;3.40;52.92
59289;BME280;45056;47.602;9.886;2023-03-16T07:32:25;92975.00;;;3.49;52.80
59289;BME280;45056;47.602;9.886;2023-03-16T07:34:55;92971.84;;;3.61;52.29
59289;BME280;45056;47.602;9.886;2023-03-16T07:37:24;92971.31;;;3.81;52.20
59289;BME280;45056;47.602;9.886;2023-03-16T07:39:53;92966.94;;;3.98;51.86
59289;BME280;45056;47.602;9.886;2023-03-16T07:42:21;92974.84;;;4.16;51.73
59289;BME280;45056;47.602;9.886;2023-03-16T07:44:49;92972.00;;;4.31;51.48
59289;BME280;45056;47.602;9.886;2023-03-16T07:47:17;92971.88;;;4.45;51.19
59289;BME280;45056;47.602;9.886;2023-03-16T07:49:46;92981.44;;;4.85;51.69
59289;BME280;45056;47.602;9.886;2023-03-16T07:52:15;92976.72;;;5.51;51.81
59289;BME280;45056;47.602;9.886;2023-03-16T07:54:44;92975.44;;;6.34;51.91
59289;BME280;45056;47.602;9.886;2023-03-16T07:57:12;92983.16;;;7.17;51.86
59289;BME280;45056;47.602;9.886;2023-03-16T07:59:40;92982.69;;;7.92;52.71
59289;BME280;45056;47.602;9.886;2023-03-16T08:02:11;92983.69;;;8.48;50.48
59289;BME280;45056;47.602;9.886;2023-03-16T08:04:41;92989.22;;;8.90;47.41
59289;BME280;45056;47.602;9.886;2023-03-16T08:07:11;92987.06;;;9.11;45.04
59289;BME280;45056;47.602;9.886;2023-03-16T08:09:42;92994.69;;;9.16;43.76
59289;BME280;45056;47.602;9.886;2023-03-16T08:12:11;92998.72;;;9.12;41.27
59289;BME280;45056;47.602;9.886;2023-03-16T08:14:39;93000.94;;;9.00;40.61
59289;BME280;45056;47.602;9.886;2023-03-16T08:17:07;92998.28;;;8.84;39.25
59289;BME280;45056;47.602;9.886;2023-03-16T08:19:37;93004.28;;;8.62;38.49
59289;BME280;45056;47.602;9.886;2023-03-16T08:22:06;93015.97;;;8.42;38.08
59289;BME280;45056;47.602;9.886;2023-03-16T08:24:34;93008.44;;;8.17;38.58
59289;BME280;45056;47.602;9.886;2023-03-16T08:27:03;93006.16;;;7.99;38.70
59289;BME280;45056;47.602;9.886;2023-03-16T08:29:31;92999.22;;;7.98;38.58
59289;BME280;45056;47.602;9.886;2023-03-16T08:32:00;93003.63;;;7.91;38.90
59289;BME280;45056;47.602;9.886;2023-03-16T08:34:28;92999.06;;;7.88;39.41
59289;BME280;45056;47.602;9.886;2023-03-16T08:36:58;92999.72;;;7.92;39.54
59289;BME280;45056;47.602;9.886;2023-03-16T08:39:26;92990.06;;;7.91;38.39
59289;BME280;45056;47.602;9.886;2023-03-16T08:41:54;92999.06;;;7.88;39.41
59289;BME280;45056;47.602;9.886;2023-03-16T08:44:24;92992.44;;;7.89;40.01
59289;BME280;45056;47.602;9.886;2023-03-16T08:46:53;92988.56;;;7.90;39.84
59289;BME280;45056;47.602;9.886;2023-03-16T08:49:21;92996.16;;;7.96;40.20
59289;BME280;45056;47.602;9.886;2023-03-16T08:51:49;92997.28;;;8.15;39.29
59289;BME280;45056;47.602;9.886;2023-03-16T08:54:17;92992.09;;;8.20;37.48
59289;BME280;45056;47.602;9.886;2023-03-16T08:56:46;92995.81;;;8.43;38.26
59289;BME280;45056;47.602;9.886;2023-03-16T08:59:14;92989.19;;;8.61;37.39
59289;BME280;45056;47.602;9.886;2023-03-16T09:01:44;92986.28;;;8.68;38.28
59289;BME280;45056;47.602;9.886;2023-03-16T09:04:12;92991.88;;;8.77;38.25
59289;BME280;45056;47.602;9.886;2023-03-16T09:06:40;92987.69;;;8.89;38.41
59289;BME280;45056;47.602;9.886;2023-03-16T09:09:08;92985.31;;;9.04;37.53
59289;BME280;45056;47.602;9.886;2023-03-16T09:11:36;92980.91;;;9.11;35.73
59289;BME280;45056;47.602;9.886;2023-03-16T09:14:04;92977.75;;;9.12;35.84
59289;BME280;45056;47.602;9.886;2023-03-16T09:16:32;92985.13;;;9.12;35.99
59289;BME280;45056;47.602;9.886;2023-03-16T09:19:02;92986.03;;;9.21;36.36
59289;BME280;45056;47.602;9.886;2023-03-16T09:21:31;92983.97;;;9.26;37.00
59289;BME280;45056;47.602;9.886;2023-03-16T09:24:00;92982.78;;;9.27;37.66
59289;BME280;45056;47.602;9.886;2023-03-16T09:26:28;92986.56;;;9.29;37.19
59289;BME280;45056;47.602;9.886;2023-03-16T09:28:56;92984.09;;;9.35;36.19
59289;BME280;45056;47.602;9.886;2023-03-16T09:31:24;92984.84;;;9.35;36.36
59289;BME280;45056;47.602;9.886;2023-03-16T09:33:52;92986.38;;;9.36;36.52
59289;BME280;45056;47.602;9.886;2023-03-16T09:36:22;92976.69;;;9.35;36.31
59289;BME280;45056;47.602;9.886;2023-03-16T09:38:50;92988.88;;;9.31;36.22
59289;BME280;45056;47.602;9.886;2023-03-16T09:41:30;92985.91;;;9.25;37.57
59289;BME280;45056;47.602;9.886;2023-03-16T09:44:30;92984.84;;;9.22;36.71
59289;BME280;45056;47.602;9.886;2023-03-16T09:47:10;92988.97;;;9.27;37.63
59289;BME280;45056;47.602;9.886;2023-03-16T09:49:46;92978.56;;;9.38;37.39
59289;BME280;45056;47.602;9.886;2023-03-16T09:52:24;92982.03;;;9.52;36.77
59289;BME280;45056;47.602;9.886;2023-03-16T09:55:06;92975.09;;;9.64;36.89
59289;BME280;45056;47.602;9.886;2023-03-16T09:57:50;92977.50;;;9.75;36.03
59289;BME280;45056;47.602;9.886;2023-03-16T10:00:22;92957.81;;;9.84;35.99
59289;BME280;45056;47.602;9.886;2023-03-16T10:03:07;92954.31;;;9.96;35.30
59289;BME280;45056;47.602;9.886;2023-03-16T10:05:51;92950.38;;;10.10;35.19
59289;BME280;45056;47.602;9.886;2023-03-16T10:08:30;92940.38;;;10.20;36.32
59289;BME280;45056;47.602;9.886;2023-03-16T10:11:22;92946.56;;;10.20;36.14
59289;BME280;45056;47.602;9.886;2023-03-16T10:14:02;92944.78;;;10.27;36.03
59289;BME280;45056;47.602;9.886;2023-03-16T10:16:46;92938.81;;;10.32;35.94
59289;BME280;45056;47.602;9.886;2023-03-16T10:19:32;92934.44;;;10.34;35.41
59289;BME280;45056;47.602;9.886;2023-03-16T10:22:16;92935.97;;;10.35;36.74
59289;BME280;45056;47.602;9.886;2023-03-16T10:24:58;92929.56;;;10.42;37.25
59289;BME280;45056;47.602;9.886;2023-03-16T10:27:35;92922.81;;;10.34;35.20
59289;BME280;45056;47.602;9.886;2023-03-16T10:30:18;92925.53;;;10.34;35.90
59289;BME280;45056;47.602;9.886;2023-03-16T10:32:49;92911.47;;;10.35;35.75
59289;BME280;45056;47.602;9.886;2023-03-16T10:35:33;92912.78;;;10.44;36.10
59289;BME280;45056;47.602;9.886;2023-03-16T10:38:30;92916.59;;;10.46;35.98
59289;BME280;45056;47.602;9.886;2023-03-16T10:41:20;92913.63;;;10.53;35.90
59289;BME280;45056;47.602;9.886;2023-03-16T10:43:56;92911.00;;;10.63;36.12
59289;BME280;45056;47.602;9.886;2023-03-16T10:46:37;92907.13;;;10.73;35.92
59289;BME280;45056;47.602;9.886;2023-03-16T10:49:20;92907.75;;;10.77;35.99
59289;BME280;45056;47.602;9.886;2023-03-16T10:51:52;92898.75;;;10.90;36.25
59289;BME280;45056;47.602;9.886;2023-03-16T10:54:28;92899.94;;;11.11;36.27
59289;BME280;45056;47.602;9.886;2023-03-16T10:57:13;92908.38;;;11.35;35.86
59289;BME280;45056;47.602;9.886;2023-03-16T10:59:50;92910.59;;;11.59;34.25
59289;BME280;45056;47.602;9.886;2023-03-16T11:02:22;92904.16;;;11.75;35.08
59289;BME280;45056;47.602;9.886;2023-03-16T11:04:53;92913.25;;;11.91;34.31
59289;BME280;45056;47.602;9.886;2023-03-16T11:07:23;92907.81;;;12.00;33.74
59289;BME280;45056;47.602;9.886;2023-03-16T11:09:54;92898.34;;;12.14;34.88
59289;BME280;45056;47.602;9.886;2023-03-16T11:12:28;92895.34;;;12.31;34.41
59289;BME280;45056;47.602;9.886;2023-03-16T11:15:01;92885.31;;;12.37;30.17
59289;BME280;45056;47.602;9.886;2023-03-16T11:17:35;92894.88;;;12.41;30.32
59289;BME280;45056;47.602;9.886;2023-03-16T11:20:14;92889.56;;;12.38;29.98
59289;BME280;45056;47.602;9.886;2023-03-16T11:22:45;92877.13;;;12.37;30.55
59289;BME280;45056;47.602;9.886;2023-03-16T11:25:20;92876.84;;;12.44;29.99
59289;BME280;45056;47.602;9.886;2023-03-16T11:28:06;92873.97;;;12.48;31.37
59289;BME280;45056;47.602;9.886;2023-03-16T11:30:48;92872.91;;;12.54;31.71
59289;BME280;45056;47.602;9.886;2023-03-16T11:33:22;92873.19;;;12.66;31.89
59289;BME280;45056;47.602;9.886;2023-03-16T11:36:00;92869.22;;;12.86;31.98
59289;BME280;45056;47.602;9.886;2023-03-16T11:38:54;92864.78;;;13.07;30.81
59289;BME280;45056;47.602;9.886;2023-03-16T11:41:42;92863.09;;;13.19;31.85
59289;BME280;45056;47.602;9.886;2023-03-16T11:44:28;92872.47;;;13.27;30.21
59289;BME280;45056;47.602;9.886;2023-03-16T11:47:21;92874.56;;;13.32;30.98
59289;BME280;45056;47.602;9.886;2023-03-16T11:50:04;92869.97;;;13.38;31.13
59289;BME280;45056;47.602;9.886;2023-03-16T11:52:50;92874.25;;;13.49;29.85
59289;BME280;45056;47.602;9.886;2023-03-16T11:55:37;92873.91;;;13.56;29.88
59289;BME280;45056;47.602;9.886;2023-03-16T11:58:26;92878.38;;;13.68;29.91
59289;BME280;45056;47.602;9.886;2023-03-16T12:01:17;92872.41;;;13.79;29.06
59289;BME280;45056;47.602;9.886;2023-03-16T12:07:11;92881.56;;;14.00;29.52
59289;BME280;45056;47.602;9.886;2023-03-16T12:10:13;92875.41;;;14.15;29.35
59289;BME280;45056;47.602;9.886;2023-03-16T12:13:04;92872.88;;;14.26;30.75
59289;BME280;45056;47.602;9.886;2023-03-16T12:15:47;92874.53;;;14.33;30.39
59289;BME280;45056;47.602;9.886;2023-03-16T12:18:25;92859.16;;;14.36;30.45
59289;BME280;45056;47.602;9.886;2023-03-16T12:21:08;92867.66;;;14.38;29.79
59289;BME280;45056;47.602;9.886;2023-03-16T12:23:49;92859.63;;;14.34;30.49
59289;BME280;45056;47.602;9.886;2023-03-16T12:26:22;92858.78;;;14.43;30.28
59289;BME280;45056;47.602;9.886;2023-03-16T12:28:56;92846.06;;;14.55;31.56
59289;BME280;45056;47.602;9.886;2023-03-16T12:31:38;92848.84;;;14.70;31.53
59289;BME280;45056;47.602;9.886;2023-03-16T12:34:24;92844.16;;;14.85;31.20
59289;BME280;45056;47.602;9.886;2023-03-16T12:37:17;92840.66;;;15.00;30.65
59289;BME280;45056;47.602;9.886;2023-03-16T12:40:08;92839.06;;;15.08;28.79
59289;BME280;45056;47.602;9.886;2023-03-16T12:46:00;92836.03;;;15.06;27.30
59289;BME280;45056;47.602;9.886;2023-03-16T12:48:39;92838.50;;;15.04;28.70
59289;BME280;45056;47.602;9.886;2023-03-16T12:51:12;92830.84;;;15.08;28.38
59289;BME280;45056;47.602;9.886;2023-03-16T12:53:43;92830.44;;;15.15;28.12
59289;BME280;45056;47.602;9.886;2023-03-16T12:56:27;92826.56;;;15.22;28.23
59289;BME280;45056;47.602;9.886;2023-03-16T12:58:59;92822.38;;;15.27;28.54
59289;BME280;45056;47.602;9.886;2023-03-16T13:01:36;92828.25;;;15.35;28.64
59289;BME280;45056;47.602;9.886;2023-03-16T13:04:12;92829.84;;;15.41;27.76
59289;BME280;45056;47.602;9.886;2023-03-16T13:06:47;92825.50;;;15.35;27.16
59289;BME280;45056;47.602;9.886;2023-03-16T13:09:22;92824.56;;;15.23;26.99
59289;BME280;45056;47.602;9.886;2023-03-16T13:11:53;92831.00;;;15.05;27.01
59289;BME280;45056;47.602;9.886;2023-03-16T13:14:42;92830.56;;;14.91;27.23
59289;BME280;45056;47.602;9.886;2023-03-16T13:17:26;92828.38;;;14.80;27.21
59289;BME280;45056;47.602;9.886;2023-03-16T13:20:03;92826.59;;;14.77;27.94
59289;BME280;45056;47.602;9.886;2023-03-16T13:23:17;92821.66;;;14.81;28.46
59289;BME280;45056;47.602;9.886;2023-03-16T13:26:02;92822.41;;;14.82;27.32
59289;BME280;45056;47.602;9.886;2023-03-16T13:28:35;92822.06;;;14.74;27.33
59289;BME280;45056;47.602;9.886;2023-03-16T13:31:19;92811.84;;;14.75;28.04
59289;BME280;45056;47.602;9.886;2023-03-16T13:33:54;92817.53;;;14.86;28.76
59289;BME280;45056;47.602;9.886;2023-03-16T13:36:27;92805.97;;;14.97;28.61
59289;BME280;45056;47.602;9.886;2023-03-16T13:39:04;92813.06;;;15.04;27.06
59289;BME280;45056;47.602;9.886;2023-03-16T13:41:39;92815.34;;;15.05;26.81